sensor_id;sensor_type;location;lat;lon;timestamp;P1;durP1;ratioP1;P2;durP2;ratioP2
14013;SDS011;49110;52.584;13.408;2024-01-11T00:00:02;34.93;;;31.23;;
14013;SDS011;49110;52.584;13.408;2024-01-11T00:01:03;37.10;;;33.65;;
14013;SDS011;49110;52.584;13.408;2024-01-11T00:02:04;35.37;;;31.90;;
14013;SDS011;49110;52.584;13.408;2024-01-11T00:03:04;45.93;;;33.57;;
14013;SDS011;49110;52.584;13.408;2024-01-11T00:04:05;38.20;;;34.53;;
14013;SDS011;49110;52.584;13.408;2024-01-11T00:05:05;38.10;;;35.00;;
14013;SDS011;49110;52.584;13.408;2024-01-11T00:06:06;36.35;;;32.45;;
14013;SDS011;49110;52.584;13.408;2024-01-11T00:07:07;37.47;;;33.00;;
14013;SDS011;49110;52.584;13.408;2024-01-11T00:08:07;39.77;;;36.37;;
14013;SDS011;49110;52.584;13.408;2024-01-11T00:09:08;41.20;;;37.63;;
14013;SDS011;49110;52.584;13.408;2024-01-11T00:10:08;41.67;;;37.50;;
14013;SDS011;49110;52.584;13.408;2024-01-11T00:11:10;39.67;;;36.33;;
14013;SDS011;49110;52.584;13.408;2024-01-11T00:12:11;37.83;;;34.53;;
14013;SDS011;49110;52.584;13.408;2024-01-11T00:13:11;53.20;;;37.10;;
14013;SDS011;49110;52.584;13.408;2024-01-11T00:14:12;45.73;;;38.30;;
14013;SDS011;49110;52.584;13.408;2024-01-11T00:15:12;46.07;;;41.20;;
14013;SDS011;49110;52.584;13.408;2024-01-11T00:16:13;45.57;;;41.10;;
14013;SDS011;49110;52.584;13.408;2024-01-11T00:17:13;41.57;;;38.37;;
14013;SDS011;49110;52.584;13.408;2024-01-11T00:18:15;42.95;;;38.33;;
14013;SDS011;49110;52.584;13.408;2024-01-11T00:19:17;43.00;;;39.20;;
14013;SDS011;49110;52.584;13.408;2024-01-11T00:20:18;42.43;;;38.83;;
14013;SDS011;49110;52.584;13.408;2024-01-11T00:21:18;41.00;;;37.33;;
14013;SDS011;49110;52.584;13.408;2024-01-11T00:22:18;40.23;;;36.93;;
14013;SDS011;49110;52.584;13.408;2024-01-11T00:23:19;40.03;;;36.77;;
14013;SDS011;49110;52.584;13.408;2024-01-11T00:24:20;40.93;;;37.23;;
14013;SDS011;49110;52.584;13.408;2024-01-11T00:25:20;42.43;;;38.70;;
14013;SDS011;49110;52.584;13.408;2024-01-11T00:26:20;41.43;;;37.37;;
14013;SDS011;49110;52.584;13.408;2024-01-11T00:27:21;43.97;;;39.83;;
14013;SDS011;49110;52.584;13.408;2024-01-11T00:28:21;42.87;;;38.60;;
14013;SDS011;49110;52.584;13.408;2024-01-11T00:29:22;49.70;;;39.70;;
14013;SDS011;49110;52.584;13.408;2024-01-11T00:30:22;51.40;;;46.83;;
14013;SDS011;49110;52.584;13.408;2024-01-11T00:31:23;50.13;;;45.03;;
14013;SDS011;49110;52.584;13.408;2024-01-11T00:32:23;47.43;;;43.20;;
14013;SDS011;49110;52.584;13.408;2024-01-11T00:33:24;53.20;;;48.70;;
14013;SDS011;49110;52.584;13.408;2024-01-11T00:34:24;47.77;;;44.07;;
14013;SDS011;49110;52.584;13.408;2024-01-11T00:35:25;46.53;;;42.43;;
14013;SDS011;49110;52.584;13.408;2024-01-11T00:36:25;49.53;;;45.63;;
14013;SDS011;49110;52.584;13.408;2024-01-11T00:37:26;46.23;;;42.53;;
14013;SDS011;49110;52.584;13.408;2024-01-11T00:38:26;48.67;;;44.23;;
14013;SDS011;49110;52.584;13.408;2024-01-11T00:39:27;46.93;;;42.87;;
14013;SDS011;49110;52.584;13.408;2024-01-11T00:40:29;47.88;;;44.47;;
14013;SDS011;49110;52.584;13.408;2024-01-11T00:41:29;47.47;;;43.67;;
14013;SDS011;49110;52.584;13.408;2024-01-11T00:42:30;46.90;;;43.50;;
14013;SDS011;49110;52.584;13.408;2024-01-11T00:43:30;45.60;;;42.20;;
14013;SDS011;49110;52.584;13.408;2024-01-11T00:44:30;42.47;;;39.27;;
14013;SDS011;49110;52.584;13.408;2024-01-11T00:45:31;47.43;;;44.00;;
14013;SDS011;49110;52.584;13.408;2024-01-11T00:46:31;43.83;;;40.43;;
14013;SDS011;49110;52.584;13.408;2024-01-11T00:47:32;44.47;;;40.67;;
14013;SDS011;49110;52.584;13.408;2024-01-11T00:48:32;40.43;;;37.43;;
14013;SDS011;49110;52.584;13.408;2024-01-11T00:49:33;41.80;;;38.80;;
14013;SDS011;49110;52.584;13.408;2024-01-11T00:50:33;44.03;;;40.63;;
14013;SDS011;49110;52.584;13.408;2024-01-11T00:51:34;40.17;;;37.17;;
14013;SDS011;49110;52.584;13.408;2024-01-11T00:52:34;45.07;;;41.83;;
14013;SDS011;49110;52.584;13.408;2024-01-11T00:53:35;44.93;;;41.40;;
14013;SDS011;49110;52.584;13.408;2024-01-11T00:54:35;44.10;;;40.47;;
14013;SDS011;49110;52.584;13.408;2024-01-11T00:55:36;44.80;;;41.07;;
14013;SDS011;49110;52.584;13.408;2024-01-11T00:56:36;44.40;;;41.30;;
14013;SDS011;49110;52.584;13.408;2024-01-11T00:57:37;47.50;;;44.33;;
14013;SDS011;49110;52.584;13.408;2024-01-11T00:58:38;43.93;;;40.83;;
14013;SDS011;49110;52.584;13.408;2024-01-11T00:59:39;44.28;;;41.00;;
14013;SDS011;49110;52.584;13.408;2024-01-11T01:00:40;44.90;;;41.67;;
14013;SDS011;49110;52.584;13.408;2024-01-11T01:01:46;42.83;;;39.70;;
14013;SDS011;49110;52.584;13.408;2024-01-11T01:02:47;46.10;;;42.60;;
14013;SDS011;49110;52.584;13.408;2024-01-11T01:03:48;42.70;;;39.30;;
14013;SDS011;49110;52.584;13.408;2024-01-11T01:04:48;41.50;;;38.20;;
14013;SDS011;49110;52.584;13.408;2024-01-11T01:05:49;40.37;;;37.20;;
14013;SDS011;49110;52.584;13.408;2024-01-11T01:06:49;41.33;;;38.13;;
14013;SDS011;49110;52.584;13.408;2024-01-11T01:07:50;41.00;;;37.97;;
14013;SDS011;49110;52.584;13.408;2024-01-11T01:08:50;42.57;;;38.97;;
14013;SDS011;49110;52.584;13.408;2024-01-11T01:09:51;40.47;;;36.63;;
14013;SDS011;49110;52.584;13.408;2024-01-11T01:10:51;44.17;;;40.57;;
14013;SDS011;49110;52.584;13.408;2024-01-11T01:11:52;41.13;;;37.73;;
14013;SDS011;49110;52.584;13.408;2024-01-11T01:12:52;45.47;;;41.73;;
14013;SDS011;49110;52.584;13.408;2024-01-11T01:13:53;41.33;;;38.17;;
14013;SDS011;49110;52.584;13.408;2024-01-11T01:14:53;44.97;;;41.50;;
14013;SDS011;49110;52.584;13.408;2024-01-11T01:15:55;43.13;;;39.88;;
14013;SDS011;49110;52.584;13.408;2024-01-11T01:16:56;42.83;;;39.60;;
14013;SDS011;49110;52.584;13.408;2024-01-11T01:17:56;42.33;;;39.23;;
14013;SDS011;49110;52.584;13.408;2024-01-11T01:18:57;41.27;;;38.10;;
14013;SDS011;49110;52.584;13.408;2024-01-11T01:19:57;39.37;;;36.40;;
14013;SDS011;49110;52.584;13.408;2024-01-11T01:20:58;38.93;;;35.90;;
14013;SDS011;49110;52.584;13.408;2024-01-11T01:21:58;37.53;;;34.13;;
14013;SDS011;49110;52.584;13.408;2024-01-11T01:22:59;41.50;;;38.33;;
14013;SDS011;49110;52.584;13.408;2024-01-11T01:23:59;41.80;;;38.60;;
14013;SDS011;49110;52.584;13.408;2024-01-11T01:25:00;42.83;;;39.63;;
14013;SDS011;49110;52.584;13.408;2024-01-11T01:26:00;38.27;;;35.47;;
14013;SDS011;49110;52.584;13.408;2024-01-11T01:27:00;41.07;;;37.67;;
14013;SDS011;49110;52.584;13.408;2024-01-11T01:28:01;42.77;;;38.43;;
14013;SDS011;49110;52.584;13.408;2024-01-11T01:29:02;41.10;;;37.60;;
14013;SDS011;49110;52.584;13.408;2024-01-11T01:30:03;43.40;;;40.07;;
14013;SDS011;49110;52.584;13.408;2024-01-11T01:31:04;42.92;;;39.28;;
14013;SDS011;49110;52.584;13.408;2024-01-11T01:32:04;43.73;;;39.60;;
14013;SDS011;49110;52.584;13.408;2024-01-11T01:33:05;39.33;;;36.17;;
14013;SDS011;49110;52.584;13.408;2024-01-11T01:34:06;45.60;;;42.03;;
14013;SDS011;49110;52.584;13.408;2024-01-11T01:35:07;40.85;;;37.88;;
14013;SDS011;49110;52.584;13.408;2024-01-11T01:36:08;44.40;;;40.77;;
14013;SDS011;49110;52.584;13.408;2024-01-11T01:37:10;38.35;;;35.05;;
14013;SDS011;49110;52.584;13.408;2024-01-11T01:38:10;41.47;;;38.17;;
14013;SDS011;49110;52.584;13.408;2024-01-11T01:39:11;43.47;;;40.37;;
14013;SDS011;49110;52.584;13.408;2024-01-11T01:40:12;42.03;;;39.07;;
14013;SDS011;49110;52.584;13.408;2024-01-11T01:41:12;44.88;;;41.58;;
14013;SDS011;49110;52.584;13.408;2024-01-11T01:42:13;42.10;;;38.97;;
14013;SDS011;49110;52.584;13.408;2024-01-11T01:43:13;41.20;;;37.90;;
14013;SDS011;49110;52.584;13.408;2024-01-11T01:44:14;39.87;;;36.77;;
14013;SDS011;49110;52.584;13.408;2024-01-11T01:45:14;40.07;;;36.67;;
14013;SDS011;49110;52.584;13.408;2024-01-11T01:46:18;38.33;;;35.35;;
14013;SDS011;49110;52.584;13.408;2024-01-11T01:47:22;39.90;;;36.78;;
14013;SDS011;49110;52.584;13.408;2024-01-11T01:48:22;41.63;;;38.43;;
14013;SDS011;49110;52.584;13.408;2024-01-11T01:49:23;41.03;;;37.93;;
14013;SDS011;49110;52.584;13.408;2024-01-11T01:50:24;43.17;;;39.78;;
14013;SDS011;49110;52.584;13.408;2024-01-11T01:51:26;41.80;;;38.65;;
14013;SDS011;49110;52.584;13.408;2024-01-11T01:52:30;37.95;;;34.83;;
14013;SDS011;49110;52.584;13.408;2024-01-11T01:53:32;43.17;;;39.25;;
14013;SDS011;49110;52.584;13.408;2024-01-11T01:54:33;44.23;;;41.03;;
14013;SDS011;49110;52.584;13.408;2024-01-11T01:55:34;41.90;;;38.73;;
14013;SDS011;49110;52.584;13.408;2024-01-11T01:56:34;43.83;;;40.63;;
14013;SDS011;49110;52.584;13.408;2024-01-11T01:57:35;42.00;;;38.67;;
14013;SDS011;49110;52.584;13.408;2024-01-11T01:58:37;45.40;;;41.47;;
14013;SDS011;49110;52.584;13.408;2024-01-11T01:59:38;44.03;;;40.67;;
14013;SDS011;49110;52.584;13.408;2024-01-11T02:00:39;45.25;;;42.00;;
14013;SDS011;49110;52.584;13.408;2024-01-11T02:01:41;45.58;;;41.55;;
14013;SDS011;49110;52.584;13.408;2024-01-11T02:02:43;43.70;;;40.30;;
14013;SDS011;49110;52.584;13.408;2024-01-11T02:03:48;45.78;;;41.92;;
14013;SDS011;49110;52.584;13.408;2024-01-11T02:04:50;45.10;;;41.53;;
14013;SDS011;49110;52.584;13.408;2024-01-11T02:05:51;47.25;;;43.45;;
14013;SDS011;49110;52.584;13.408;2024-01-11T02:06:53;51.08;;;47.28;;
14013;SDS011;49110;52.584;13.408;2024-01-11T02:07:55;51.70;;;47.47;;
14013;SDS011;49110;52.584;13.408;2024-01-11T02:08:58;55.17;;;51.10;;
14013;SDS011;49110;52.584;13.408;2024-01-11T02:10:00;56.75;;;52.70;;
14013;SDS011;49110;52.584;13.408;2024-01-11T02:11:03;55.00;;;51.08;;
14013;SDS011;49110;52.584;13.408;2024-01-11T02:12:03;58.77;;;54.17;;
14013;SDS011;49110;52.584;13.408;2024-01-11T02:13:05;56.67;;;52.20;;
14013;SDS011;49110;52.584;13.408;2024-01-11T02:14:05;64.03;;;58.43;;
14013;SDS011;49110;52.584;13.408;2024-01-11T02:15:06;60.13;;;55.50;;
14013;SDS011;49110;52.584;13.408;2024-01-11T02:16:07;65.23;;;60.53;;
14013;SDS011;49110;52.584;13.408;2024-01-11T02:17:07;70.07;;;65.17;;
14013;SDS011;49110;52.584;13.408;2024-01-11T02:18:08;61.93;;;57.63;;
14013;SDS011;49110;52.584;13.408;2024-01-11T02:19:10;59.58;;;55.20;;
14013;SDS011;49110;52.584;13.408;2024-01-11T02:20:13;59.42;;;54.83;;
14013;SDS011;49110;52.584;13.408;2024-01-11T02:21:14;63.33;;;58.90;;
14013;SDS011;49110;52.584;13.408;2024-01-11T02:22:20;61.15;;;56.88;;
14013;SDS011;49110;52.584;13.408;2024-01-11T02:23:24;60.80;;;56.47;;
14013;SDS011;49110;52.584;13.408;2024-01-11T02:24:26;63.17;;;58.17;;
14013;SDS011;49110;52.584;13.408;2024-01-11T02:25:27;62.07;;;57.53;;
14013;SDS011;49110;52.584;13.408;2024-01-11T02:26:27;62.73;;;58.00;;
14013;SDS011;49110;52.584;13.408;2024-01-11T02:27:28;64.47;;;60.03;;
14013;SDS011;49110;52.584;13.408;2024-01-11T02:28:28;69.27;;;63.70;;
14013;SDS011;49110;52.584;13.408;2024-01-11T02:29:29;68.57;;;63.67;;
14013;SDS011;49110;52.584;13.408;2024-01-11T02:30:30;69.40;;;64.15;;
14013;SDS011;49110;52.584;13.408;2024-01-11T02:31:31;70.80;;;65.97;;
14013;SDS011;49110;52.584;13.408;2024-01-11T02:32:31;70.70;;;65.70;;
14013;SDS011;49110;52.584;13.408;2024-01-11T02:33:32;69.63;;;64.87;;
14013;SDS011;49110;52.584;13.408;2024-01-11T02:34:32;73.00;;;67.87;;
14013;SDS011;49110;52.584;13.408;2024-01-11T02:35:34;74.97;;;69.40;;
14013;SDS011;49110;52.584;13.408;2024-01-11T02:36:35;75.25;;;70.18;;
14013;SDS011;49110;52.584;13.408;2024-01-11T02:37:36;74.87;;;69.80;;
14013;SDS011;49110;52.584;13.408;2024-01-11T02:38:38;68.28;;;63.55;;
14013;SDS011;49110;52.584;13.408;2024-01-11T02:39:42;69.75;;;64.80;;
14013;SDS011;49110;52.584;13.408;2024-01-11T02:40:42;70.67;;;65.70;;
14013;SDS011;49110;52.584;13.408;2024-01-11T02:41:44;72.60;;;67.75;;
14013;SDS011;49110;52.584;13.408;2024-01-11T02:42:44;68.87;;;64.33;;
14013;SDS011;49110;52.584;13.408;2024-01-11T02:43:48;77.50;;;72.30;;
14013;SDS011;49110;52.584;13.408;2024-01-11T02:44:48;70.93;;;66.00;;
14013;SDS011;49110;52.584;13.408;2024-01-11T02:45:49;75.10;;;70.13;;
14013;SDS011;49110;52.584;13.408;2024-01-11T02:46:49;68.73;;;64.10;;
14013;SDS011;49110;52.584;13.408;2024-01-11T02:47:50;73.27;;;68.53;;
14013;SDS011;49110;52.584;13.408;2024-01-11T02:48:50;65.83;;;61.60;;
14013;SDS011;49110;52.584;13.408;2024-01-11T02:49:52;67.63;;;62.88;;
14013;SDS011;49110;52.584;13.408;2024-01-11T02:50:52;62.57;;;58.47;;
14013;SDS011;49110;52.584;13.408;2024-01-11T02:51:53;64.97;;;60.57;;
14013;SDS011;49110;52.584;13.408;2024-01-11T02:52:53;63.10;;;58.37;;
14013;SDS011;49110;52.584;13.408;2024-01-11T02:53:54;61.80;;;57.00;;
14013;SDS011;49110;52.584;13.408;2024-01-11T02:54:54;62.37;;;58.33;;
14013;SDS011;49110;52.584;13.408;2024-01-11T02:55:55;63.47;;;59.27;;
14013;SDS011;49110;52.584;13.408;2024-01-11T02:56:55;63.50;;;59.30;;
14013;SDS011;49110;52.584;13.408;2024-01-11T02:57:57;64.60;;;60.25;;
14013;SDS011;49110;52.584;13.408;2024-01-11T02:58:57;62.70;;;58.63;;
14013;SDS011;49110;52.584;13.408;2024-01-11T02:59:58;70.90;;;66.30;;
14013;SDS011;49110;52.584;13.408;2024-01-11T03:00:58;65.07;;;60.63;;
14013;SDS011;49110;52.584;13.408;2024-01-11T03:01:59;56.83;;;52.87;;
14013;SDS011;49110;52.584;13.408;2024-01-11T03:02:59;59.47;;;55.47;;
14013;SDS011;49110;52.584;13.408;2024-01-11T03:04:00;61.13;;;55.87;;
14013;SDS011;49110;52.584;13.408;2024-01-11T03:05:01;58.97;;;54.93;;
14013;SDS011;49110;52.584;13.408;2024-01-11T03:06:02;62.33;;;58.13;;
14013;SDS011;49110;52.584;13.408;2024-01-11T03:07:02;61.17;;;56.67;;
14013;SDS011;49110;52.584;13.408;2024-01-11T03:08:03;63.57;;;58.70;;
14013;SDS011;49110;52.584;13.408;2024-01-11T03:09:04;58.63;;;54.30;;
14013;SDS011;49110;52.584;13.408;2024-01-11T03:10:04;65.77;;;61.27;;
14013;SDS011;49110;52.584;13.408;2024-01-11T03:11:05;66.33;;;61.87;;
14013;SDS011;49110;52.584;13.408;2024-01-11T03:12:06;70.53;;;64.90;;
14013;SDS011;49110;52.584;13.408;2024-01-11T03:13:07;63.33;;;58.90;;
14013;SDS011;49110;52.584;13.408;2024-01-11T03:14:07;62.97;;;58.73;;
14013;SDS011;49110;52.584;13.408;2024-01-11T03:15:08;61.93;;;57.77;;
14013;SDS011;49110;52.584;13.408;2024-01-11T03:16:08;60.07;;;55.90;;
14013;SDS011;49110;52.584;13.408;2024-01-11T03:17:09;68.57;;;64.03;;
14013;SDS011;49110;52.584;13.408;2024-01-11T03:18:09;69.00;;;64.27;;
14013;SDS011;49110;52.584;13.408;2024-01-11T03:19:10;62.47;;;58.10;;
14013;SDS011;49110;52.584;13.408;2024-01-11T03:20:10;63.43;;;59.07;;
14013;SDS011;49110;52.584;13.408;2024-01-11T03:21:11;63.03;;;58.47;;
14013;SDS011;49110;52.584;13.408;2024-01-11T03:22:11;58.37;;;54.20;;
14013;SDS011;49110;52.584;13.408;2024-01-11T03:23:12;63.03;;;58.73;;
14013;SDS011;49110;52.584;13.408;2024-01-11T03:24:13;65.60;;;61.00;;
14013;SDS011;49110;52.584;13.408;2024-01-11T03:25:13;58.53;;;54.33;;
14013;SDS011;49110;52.584;13.408;2024-01-11T03:26:15;59.97;;;55.53;;
14013;SDS011;49110;52.584;13.408;2024-01-11T03:27:16;61.72;;;56.97;;
14013;SDS011;49110;52.584;13.408;2024-01-11T03:28:17;65.40;;;60.77;;
14013;SDS011;49110;52.584;13.408;2024-01-11T03:29:17;56.53;;;52.27;;
14013;SDS011;49110;52.584;13.408;2024-01-11T03:30:18;59.67;;;55.33;;
14013;SDS011;49110;52.584;13.408;2024-01-11T03:31:19;58.20;;;53.90;;
14013;SDS011;49110;52.584;13.408;2024-01-11T03:32:19;56.50;;;52.17;;
14013;SDS011;49110;52.584;13.408;2024-01-11T03:33:19;54.43;;;50.30;;
14013;SDS011;49110;52.584;13.408;2024-01-11T03:34:20;59.00;;;54.33;;
14013;SDS011;49110;52.584;13.408;2024-01-11T03:35:20;56.17;;;52.13;;
14013;SDS011;49110;52.584;13.408;2024-01-11T03:36:23;56.60;;;52.10;;
14013;SDS011;49110;52.584;13.408;2024-01-11T03:37:24;62.05;;;57.50;;
14013;SDS011;49110;52.584;13.408;2024-01-11T03:38:25;57.07;;;52.73;;
14013;SDS011;49110;52.584;13.408;2024-01-11T03:39:25;61.53;;;56.73;;
14013;SDS011;49110;52.584;13.408;2024-01-11T03:40:26;58.43;;;54.20;;
14013;SDS011;49110;52.584;13.408;2024-01-11T03:41:26;61.03;;;56.60;;
14013;SDS011;49110;52.584;13.408;2024-01-11T03:42:27;62.07;;;57.70;;
14013;SDS011;49110;52.584;13.408;2024-01-11T03:43:28;62.67;;;58.28;;
14013;SDS011;49110;52.584;13.408;2024-01-11T03:44:29;61.17;;;56.73;;
14013;SDS011;49110;52.584;13.408;2024-01-11T03:45:31;60.80;;;56.42;;
14013;SDS011;49110;52.584;13.408;2024-01-11T03:46:31;58.83;;;54.63;;
14013;SDS011;49110;52.584;13.408;2024-01-11T03:47:32;61.10;;;56.73;;
14013;SDS011;49110;52.584;13.408;2024-01-11T03:48:32;58.80;;;54.43;;
14013;SDS011;49110;52.584;13.408;2024-01-11T03:49:33;63.20;;;58.63;;
14013;SDS011;49110;52.584;13.408;2024-01-11T03:50:33;59.80;;;55.40;;
14013;SDS011;49110;52.584;13.408;2024-01-11T03:51:34;61.77;;;57.57;;
14013;SDS011;49110;52.584;13.408;2024-01-11T03:52:34;66.10;;;61.27;;
14013;SDS011;49110;52.584;13.408;2024-01-11T03:53:35;63.47;;;59.00;;
14013;SDS011;49110;52.584;13.408;2024-01-11T03:54:36;63.90;;;59.47;;
14013;SDS011;49110;52.584;13.408;2024-01-11T03:55:37;63.03;;;58.77;;
14013;SDS011;49110;52.584;13.408;2024-01-11T03:56:38;61.47;;;57.17;;
14013;SDS011;49110;52.584;13.408;2024-01-11T03:57:41;60.83;;;56.63;;
14013;SDS011;49110;52.584;13.408;2024-01-11T03:58:44;65.55;;;61.03;;
14013;SDS011;49110;52.584;13.408;2024-01-11T03:59:44;63.13;;;58.80;;
14013;SDS011;49110;52.584;13.408;2024-01-11T04:00:45;69.33;;;64.63;;
14013;SDS011;49110;52.584;13.408;2024-01-11T04:01:45;66.90;;;62.33;;
14013;SDS011;49110;52.584;13.408;2024-01-11T04:02:46;66.97;;;62.47;;
14013;SDS011;49110;52.584;13.408;2024-01-11T04:03:46;73.13;;;68.03;;
14013;SDS011;49110;52.584;13.408;2024-01-11T04:04:47;78.90;;;73.47;;
14013;SDS011;49110;52.584;13.408;2024-01-11T04:05:47;74.67;;;69.80;;
14013;SDS011;49110;52.584;13.408;2024-01-11T04:06:48;76.90;;;71.80;;
14013;SDS011;49110;52.584;13.408;2024-01-11T04:07:51;78.80;;;72.68;;
14013;SDS011;49110;52.584;13.408;2024-01-11T04:08:51;76.83;;;71.77;;
14013;SDS011;49110;52.584;13.408;2024-01-11T04:09:52;77.97;;;72.50;;
14013;SDS011;49110;52.584;13.408;2024-01-11T04:10:52;79.20;;;74.17;;
14013;SDS011;49110;52.584;13.408;2024-01-11T04:11:53;75.47;;;70.20;;
14013;SDS011;49110;52.584;13.408;2024-01-11T04:12:53;77.93;;;72.90;;
14013;SDS011;49110;52.584;13.408;2024-01-11T04:13:54;83.00;;;77.67;;
14013;SDS011;49110;52.584;13.408;2024-01-11T04:14:54;85.30;;;79.93;;
14013;SDS011;49110;52.584;13.408;2024-01-11T04:15:54;86.87;;;81.40;;
14013;SDS011;49110;52.584;13.408;2024-01-11T04:16:55;78.80;;;73.97;;
14013;SDS011;49110;52.584;13.408;2024-01-11T04:17:55;85.63;;;80.13;;
14013;SDS011;49110;52.584;13.408;2024-01-11T04:18:56;82.43;;;77.07;;
14013;SDS011;49110;52.584;13.408;2024-01-11T04:19:56;79.10;;;73.90;;
14013;SDS011;49110;52.584;13.408;2024-01-11T04:20:57;76.97;;;72.10;;
14013;SDS011;49110;52.584;13.408;2024-01-11T04:21:58;80.37;;;75.17;;
14013;SDS011;49110;52.584;13.408;2024-01-11T04:22:58;77.13;;;72.00;;
14013;SDS011;49110;52.584;13.408;2024-01-11T04:23:59;86.53;;;81.10;;
14013;SDS011;49110;52.584;13.408;2024-01-11T04:25:00;81.73;;;76.57;;
14013;SDS011;49110;52.584;13.408;2024-01-11T04:26:00;89.23;;;83.73;;
14013;SDS011;49110;52.584;13.408;2024-01-11T04:27:01;93.07;;;86.13;;
14013;SDS011;49110;52.584;13.408;2024-01-11T04:28:01;90.77;;;84.50;;
14013;SDS011;49110;52.584;13.408;2024-01-11T04:29:02;93.43;;;87.63;;
14013;SDS011;49110;52.584;13.408;2024-01-11T04:30:03;90.03;;;84.37;;
14013;SDS011;49110;52.584;13.408;2024-01-11T04:31:04;91.97;;;86.03;;
14013;SDS011;49110;52.584;13.408;2024-01-11T04:32:04;88.93;;;83.13;;
14013;SDS011;49110;52.584;13.408;2024-01-11T04:33:05;88.30;;;82.07;;
14013;SDS011;49110;52.584;13.408;2024-01-11T04:34:06;89.87;;;83.97;;
14013;SDS011;49110;52.584;13.408;2024-01-11T04:35:07;103.28;;;96.72;;
14013;SDS011;49110;52.584;13.408;2024-01-11T04:36:08;97.10;;;90.30;;
14013;SDS011;49110;52.584;13.408;2024-01-11T04:37:09;99.78;;;92.97;;
14013;SDS011;49110;52.584;13.408;2024-01-11T04:38:10;102.67;;;96.20;;
14013;SDS011;49110;52.584;13.408;2024-01-11T04:39:10;100.93;;;94.67;;
14013;SDS011;49110;52.584;13.408;2024-01-11T04:40:11;109.90;;;103.00;;
14013;SDS011;49110;52.584;13.408;2024-01-11T04:41:12;113.47;;;106.23;;
14013;SDS011;49110;52.584;13.408;2024-01-11T04:42:14;107.47;;;100.68;;
14013;SDS011;49110;52.584;13.408;2024-01-11T04:43:14;106.37;;;99.83;;
14013;SDS011;49110;52.584;13.408;2024-01-11T04:44:15;108.00;;;100.70;;
14013;SDS011;49110;52.584;13.408;2024-01-11T04:45:15;114.97;;;107.90;;
14013;SDS011;49110;52.584;13.408;2024-01-11T04:46:16;107.27;;;100.70;;
14013;SDS011;49110;52.584;13.408;2024-01-11T04:47:17;110.97;;;104.38;;
14013;SDS011;49110;52.584;13.408;2024-01-11T04:48:18;110.90;;;103.80;;
14013;SDS011;49110;52.584;13.408;2024-01-11T04:49:18;113.73;;;106.37;;
14013;SDS011;49110;52.584;13.408;2024-01-11T04:50:19;115.13;;;108.13;;
14013;SDS011;49110;52.584;13.408;2024-01-11T04:51:19;112.73;;;104.73;;
14013;SDS011;49110;52.584;13.408;2024-01-11T04:52:23;106.05;;;99.45;;
14013;SDS011;49110;52.584;13.408;2024-01-11T04:53:23;114.70;;;107.93;;
14013;SDS011;49110;52.584;13.408;2024-01-11T04:54:24;110.83;;;103.80;;
14013;SDS011;49110;52.584;13.408;2024-01-11T04:55:24;110.63;;;103.77;;
14013;SDS011;49110;52.584;13.408;2024-01-11T04:56:25;110.60;;;103.60;;
14013;SDS011;49110;52.584;13.408;2024-01-11T04:57:25;114.77;;;107.63;;
14013;SDS011;49110;52.584;13.408;2024-01-11T04:58:26;108.00;;;101.10;;
14013;SDS011;49110;52.584;13.408;2024-01-11T04:59:26;106.17;;;99.50;;
14013;SDS011;49110;52.584;13.408;2024-01-11T05:00:28;110.00;;;103.00;;
14013;SDS011;49110;52.584;13.408;2024-01-11T05:01:28;112.43;;;105.33;;
14013;SDS011;49110;52.584;13.408;2024-01-11T05:02:29;107.60;;;100.87;;
14013;SDS011;49110;52.584;13.408;2024-01-11T05:03:29;109.17;;;102.00;;
14013;SDS011;49110;52.584;13.408;2024-01-11T05:04:30;105.60;;;98.90;;
14013;SDS011;49110;52.584;13.408;2024-01-11T05:05:31;106.43;;;99.73;;
14013;SDS011;49110;52.584;13.408;2024-01-11T05:06:31;111.13;;;103.97;;
14013;SDS011;49110;52.584;13.408;2024-01-11T05:07:31;110.03;;;102.43;;
14013;SDS011;49110;52.584;13.408;2024-01-11T05:08:32;111.60;;;104.00;;
14013;SDS011;49110;52.584;13.408;2024-01-11T05:09:33;107.83;;;101.07;;
14013;SDS011;49110;52.584;13.408;2024-01-11T05:10:35;102.70;;;96.03;;
14013;SDS011;49110;52.584;13.408;2024-01-11T05:11:36;109.43;;;102.10;;
14013;SDS011;49110;52.584;13.408;2024-01-11T05:12:36;113.10;;;105.63;;
14013;SDS011;49110;52.584;13.408;2024-01-11T05:13:38;105.50;;;98.75;;
14013;SDS011;49110;52.584;13.408;2024-01-11T05:14:38;109.30;;;102.10;;
14013;SDS011;49110;52.584;13.408;2024-01-11T05:15:39;108.93;;;101.93;;
14013;SDS011;49110;52.584;13.408;2024-01-11T05:16:39;110.13;;;102.83;;
14013;SDS011;49110;52.584;13.408;2024-01-11T05:17:40;106.22;;;99.43;;
14013;SDS011;49110;52.584;13.408;2024-01-11T05:18:42;109.35;;;102.32;;
14013;SDS011;49110;52.584;13.408;2024-01-11T05:19:43;104.93;;;98.20;;
14013;SDS011;49110;52.584;13.408;2024-01-11T05:20:43;102.80;;;96.23;;
14013;SDS011;49110;52.584;13.408;2024-01-11T05:21:44;100.33;;;93.67;;
14013;SDS011;49110;52.584;13.408;2024-01-11T05:22:45;106.20;;;99.30;;
14013;SDS011;49110;52.584;13.408;2024-01-11T05:23:45;106.67;;;99.97;;
14013;SDS011;49110;52.584;13.408;2024-01-11T05:24:46;105.77;;;99.03;;
14013;SDS011;49110;52.584;13.408;2024-01-11T05:25:46;113.03;;;105.90;;
14013;SDS011;49110;52.584;13.408;2024-01-11T05:26:47;111.18;;;103.47;;
14013;SDS011;49110;52.584;13.408;2024-01-11T05:27:48;105.30;;;98.33;;
14013;SDS011;49110;52.584;13.408;2024-01-11T05:28:48;113.97;;;106.20;;
14013;SDS011;49110;52.584;13.408;2024-01-11T05:29:49;111.67;;;104.53;;
14013;SDS011;49110;52.584;13.408;2024-01-11T05:30:49;115.73;;;108.13;;
14013;SDS011;49110;52.584;13.408;2024-01-11T05:31:50;111.50;;;104.37;;
14013;SDS011;49110;52.584;13.408;2024-01-11T05:32:50;103.90;;;97.23;;
14013;SDS011;49110;52.584;13.408;2024-01-11T05:33:51;110.03;;;102.70;;
14013;SDS011;49110;52.584;13.408;2024-01-11T05:34:51;115.27;;;107.80;;
14013;SDS011;49110;52.584;13.408;2024-01-11T05:35:52;103.67;;;96.93;;
14013;SDS011;49110;52.584;13.408;2024-01-11T05:36:53;109.03;;;102.03;;
14013;SDS011;49110;52.584;13.408;2024-01-11T05:37:54;104.90;;;97.97;;
14013;SDS011;49110;52.584;13.408;2024-01-11T05:38:57;105.97;;;99.05;;
14013;SDS011;49110;52.584;13.408;2024-01-11T05:39:58;108.60;;;101.40;;
14013;SDS011;49110;52.584;13.408;2024-01-11T05:40:58;110.20;;;102.80;;
14013;SDS011;49110;52.584;13.408;2024-01-11T05:41:59;112.33;;;104.67;;
14013;SDS011;49110;52.584;13.408;2024-01-11T05:42:59;110.70;;;103.03;;
14013;SDS011;49110;52.584;13.408;2024-01-11T05:44:00;108.40;;;100.73;;
14013;SDS011;49110;52.584;13.408;2024-01-11T05:45:00;112.83;;;105.30;;
14013;SDS011;49110;52.584;13.408;2024-01-11T05:46:01;112.27;;;104.80;;
14013;SDS011;49110;52.584;13.408;2024-01-11T05:47:02;117.20;;;109.23;;
14013;SDS011;49110;52.584;13.408;2024-01-11T05:48:02;116.67;;;109.17;;